createdAt,value
2023-03-30T00:02:18.828Z,82.62
2023-03-30T00:04:52.794Z,82.65
2023-03-30T00:07:26.255Z,82.70
2023-03-30T00:10:01.277Z,82.45
2023-03-30T00:12:34.476Z,82.47
2023-03-30T00:15:10.770Z,82.46
2023-03-30T00:17:44.302Z,82.62
2023-03-30T00:20:18.563Z,82.67
2023-03-30T00:22:52.238Z,82.63
2023-03-30T00:25:25.248Z,82.64
2023-03-30T00:27:58.430Z,82.62
2023-03-30T00:30:32.325Z,82.57
2023-03-30T00:33:06.003Z,82.59
2023-03-30T00:35:39.792Z,82.60
2023-03-30T00:38:13.199Z,82.51
2023-03-30T00:40:53.519Z,82.54
2023-03-30T00:43:27.396Z,82.47
2023-03-30T00:46:01.580Z,82.51
2023-03-30T00:48:39.029Z,82.57
2023-03-30T00:51:14.201Z,82.49
2023-03-30T00:53:51.656Z,82.43
2023-03-30T00:56:29.021Z,82.55
2023-03-30T00:59:04.366Z,82.50
2023-03-30T01:01:40.441Z,82.45
2023-03-30T01:04:14.499Z,82.47
2023-03-30T01:06:48.417Z,82.51
2023-03-30T01:09:22.783Z,82.51
2023-03-30T01:11:56.738Z,82.61
2023-03-30T01:14:30.611Z,82.59
2023-03-30T01:17:07.458Z,82.71
2023-03-30T01:20:07.751Z,82.61
2023-03-30T01:26:28.154Z,82.95
2023-03-30T01:29:06.347Z,82.93
2023-03-30T01:32:15.883Z,82.92
2023-03-30T01:35:13.816Z,82.86
2023-03-30T01:38:14.128Z,82.59
2023-03-30T01:40:50.662Z,82.47
2023-03-30T01:43:28.851Z,82.26
2023-03-30T01:46:05.800Z,82.17
2023-03-30T01:48:44.699Z,82.11
2023-03-30T01:51:21.591Z,82.04
2023-03-30T01:53:58.317Z,81.91
2023-03-30T01:56:34.440Z,81.71
2023-03-30T01:59:12.174Z,81.61
2023-03-30T02:01:50.378Z,81.60
2023-03-30T02:04:26.152Z,81.41
2023-03-30T02:07:03.000Z,81.41
2023-03-30T02:09:38.848Z,81.35
2023-03-30T02:12:14.637Z,81.25
2023-03-30T02:14:51.514Z,81.24
2023-03-30T02:17:27.920Z,81.11
2023-03-30T02:20:08.652Z,81.15
2023-03-30T02:22:42.761Z,81.13
2023-03-30T02:25:17.519Z,80.99
2023-03-30T02:27:53.183Z,80.86
2023-03-30T02:30:26.806Z,80.86
2023-03-30T02:33:00.672Z,80.77
2023-03-30T02:35:42.174Z,80.74
2023-03-30T02:38:36.659Z,80.66
2023-03-30T02:41:17.273Z,80.58
2023-03-30T02:43:56.363Z,80.54
2023-03-30T02:46:38.872Z,80.57
2023-03-30T02:49:18.754Z,80.33
2023-03-30T02:52:05.007Z,80.33
2023-03-30T02:54:46.921Z,80.36
2023-03-30T02:57:31.700Z,80.24
2023-03-30T03:00:19.020Z,80.30
2023-03-30T03:02:55.505Z,80.30
2023-03-30T03:05:32.625Z,80.30
2023-03-30T03:08:10.815Z,80.04
2023-03-30T03:10:44.258Z,80.02
2023-03-30T03:13:20.186Z,79.87
2023-03-30T03:15:56.486Z,79.71
2023-03-30T03:18:32.170Z,79.88
2023-03-30T03:21:06.239Z,80.02
2023-03-30T03:23:41.402Z,80.03
2023-03-30T03:26:15.623Z,80.04
2023-03-30T03:28:49.185Z,79.97
2023-03-30T03:31:24.535Z,80.05
2023-03-30T03:33:58.016Z,80.00
2023-03-30T03:36:33.535Z,79.92
2023-03-30T03:39:08.248Z,79.92
2023-03-30T03:41:41.769Z,80.07
2023-03-30T03:44:15.557Z,80.07
2023-03-30T03:46:49.333Z,80.01
2023-03-30T03:49:23.235Z,79.96
2023-03-30T03:51:56.480Z,80.00
2023-03-30T03:54:30.442Z,79.97
2023-03-30T03:57:05.797Z,79.82
2023-03-30T03:59:39.037Z,79.69
2023-03-30T04:02:12.498Z,79.77
2023-03-30T04:04:46.082Z,79.76
2023-03-30T04:07:21.620Z,79.70
2023-03-30T04:09:54.760Z,79.65
2023-03-30T04:12:31.476Z,79.48
2023-03-30T04:15:13.412Z,79.50
2023-03-30T04:17:52.929Z,79.46
2023-03-30T04:20:33.868Z,79.36
2023-03-30T04:23:19.353Z,79.46
2023-03-30T04:31:28.786Z,79.67
2023-03-30T04:34:09.798Z,79.37
2023-03-30T04:36:49.815Z,79.39
2023-03-30T04:39:31.317Z,79.19
2023-03-30T04:42:27.007Z,79.14
2023-03-30T04:45:21.762Z,79.16
2023-03-30T04:48:14.977Z,79.18
2023-03-30T04:51:06.855Z,79.09
2023-03-30T04:53:58.400Z,79.14
2023-03-30T04:56:42.883Z,78.85
2023-03-30T04:59:18.213Z,78.70
2023-03-30T05:02:10.253Z,78.74
2023-03-30T05:05:01.939Z,78.59
2023-03-30T05:07:54.006Z,78.75
2023-03-30T05:10:36.201Z,78.66
2023-03-30T05:13:11.498Z,78.45
2023-03-30T05:15:59.461Z,78.43
2023-03-30T05:18:51.807Z,78.24
2023-03-30T05:21:43.707Z,78.10
2023-03-30T05:24:19.318Z,77.83
2023-03-30T05:27:12.246Z,77.49
2023-03-30T05:29:47.443Z,77.40
2023-03-30T05:32:25.427Z,77.19
2023-03-30T05:35:10.584Z,76.71
2023-03-30T05:37:55.368Z,76.59
2023-03-30T05:40:33.240Z,76.76
2023-03-30T05:46:08.418Z,76.57
2023-03-30T05:48:46.735Z,76.13
2023-03-30T05:51:33.155Z,75.48
2023-03-30T05:54:24.436Z,75.49
2023-03-30T05:57:11.349Z,74.98
2023-03-30T05:59:47.579Z,75.01
2023-03-30T06:02:27.525Z,74.92
2023-03-30T06:05:03.344Z,75.18
2023-03-30T06:07:37.592Z,74.76
2023-03-30T06:10:13.852Z,74.72
2023-03-30T06:12:47.812Z,74.53
2023-03-30T06:15:28.918Z,74.29
2023-03-30T06:18:10.160Z,73.98
2023-03-30T06:20:47.496Z,73.93
2023-03-30T06:23:21.471Z,74.08
2023-03-30T06:25:55.915Z,73.98
2023-03-30T06:28:31.327Z,73.66
2023-03-30T06:31:10.335Z,73.45
2023-03-30T06:33:44.477Z,73.46
2023-03-30T06:36:19.944Z,72.88
2023-03-30T06:38:54.236Z,72.28
2023-03-30T06:41:28.452Z,72.05
2023-03-30T06:44:01.856Z,71.75
2023-03-30T06:46:36.735Z,71.27
2023-03-30T06:49:13.059Z,71.13
2023-03-30T06:51:51.460Z,71.07
2023-03-30T06:54:25.067Z,71.23
2023-03-30T06:57:00.164Z,70.87
2023-03-30T06:59:35.135Z,70.35
2023-03-30T07:02:16.766Z,69.90
2023-03-30T07:04:52.093Z,69.82
2023-03-30T07:07:34.949Z,69.91
2023-03-30T07:10:11.180Z,69.96
2023-03-30T07:12:45.092Z,69.86
2023-03-30T07:15:18.760Z,69.79
2023-03-30T07:17:53.417Z,69.76
2023-03-30T07:20:27.483Z,69.91
2023-03-30T07:23:06.107Z,69.30
2023-03-30T07:25:40.227Z,69.05
2023-03-30T07:28:16.464Z,69.16
2023-03-30T07:30:51.853Z,69.15
2023-03-30T07:33:27.506Z,68.54
2023-03-30T07:36:01.105Z,68.57
2023-03-30T07:38:35.267Z,68.34
2023-03-30T07:41:13.827Z,67.52
2023-03-30T07:43:47.900Z,66.88
2023-03-30T07:46:21.995Z,66.95
2023-03-30T07:48:57.775Z,66.91
2023-03-30T07:51:31.816Z,66.65
2023-03-30T07:54:07.359Z,65.64
2023-03-30T07:56:44.848Z,65.35
2023-03-30T07:59:19.324Z,65.06
2023-03-30T08:01:54.774Z,64.63
2023-03-30T08:04:44.113Z,65.35
2023-03-30T08:07:18.933Z,65.54
2023-03-30T08:09:53.007Z,65.84
2023-03-30T08:12:27.339Z,65.77
2023-03-30T08:15:01.162Z,65.61
2023-03-30T08:17:35.007Z,65.72
2023-03-30T08:20:11.601Z,65.58
2023-03-30T08:22:45.755Z,65.56
2023-03-30T08:25:19.715Z,65.58
2023-03-30T08:27:53.052Z,65.83
2023-03-30T08:30:27.292Z,65.86
2023-03-30T08:33:01.250Z,66.50
2023-03-30T08:35:34.854Z,66.81
2023-03-30T08:38:07.915Z,66.92
2023-03-30T08:40:43.140Z,66.70
2023-03-30T08:43:29.545Z,66.74
2023-03-30T08:46:04.154Z,66.64
2023-03-30T08:48:40.461Z,66.90
2023-03-30T08:51:19.949Z,66.88
2023-03-30T08:53:57.687Z,67.08
2023-03-30T08:56:33.139Z,67.48
2023-03-30T08:59:11.680Z,67.76
2023-03-30T09:01:48.714Z,67.92
2023-03-30T09:04:27.359Z,68.10
2023-03-30T09:07:03.587Z,68.39
2023-03-30T09:09:40.796Z,68.74
2023-03-30T09:12:19.635Z,69.01
2023-03-30T09:14:56.336Z,69.33
2023-03-30T09:17:33.430Z,69.50
2023-03-30T09:20:13.226Z,69.64
2023-03-30T09:22:48.796Z,69.51
2023-03-30T09:25:26.146Z,69.29
2023-03-30T09:28:04.548Z,69.22
2023-03-30T09:30:41.746Z,69.13
2023-03-30T09:33:23.188Z,69.35
2023-03-30T09:36:08.015Z,69.55
2023-03-30T09:38:43.325Z,69.47
2023-03-30T09:41:39.272Z,69.57
2023-03-30T09:44:16.716Z,69.68
2023-03-30T09:46:50.802Z,69.80
2023-03-30T09:49:25.549Z,70.09
2023-03-30T09:52:04.368Z,69.90
2023-03-30T09:54:42.069Z,69.77
2023-03-30T09:57:31.381Z,69.37
2023-03-30T10:00:09.362Z,69.19
2023-03-30T10:02:46.260Z,69.66
2023-03-30T10:05:21.337Z,69.60
2023-03-30T10:07:58.477Z,69.54
2023-03-30T10:10:36.214Z,69.42
2023-03-30T10:13:09.826Z,69.58
2023-03-30T10:15:45.026Z,69.48
2023-03-30T10:18:27.818Z,69.40
2023-03-30T10:21:05.838Z,69.35
2023-03-30T10:23:42.135Z,69.50
2023-03-30T10:26:18.586Z,69.27
2023-03-30T10:28:55.957Z,69.46
2023-03-30T10:31:30.189Z,69.45
2023-03-30T10:34:05.747Z,68.91
2023-03-30T10:36:41.108Z,68.76
2023-03-30T10:39:18.458Z,68.83
2023-03-30T10:41:54.321Z,68.98
2023-03-30T10:44:29.975Z,69.06
2023-03-30T10:47:10.611Z,68.92
2023-03-30T10:49:48.348Z,69.00
2023-03-30T10:52:25.422Z,69.18
2023-03-30T10:55:01.683Z,68.93
2023-03-30T10:57:39.902Z,69.14
2023-03-30T11:00:24.284Z,69.27
2023-03-30T11:03:03.298Z,69.41
2023-03-30T11:05:40.504Z,69.61
2023-03-30T11:08:17.310Z,69.53
2023-03-30T11:10:54.132Z,69.60
2023-03-30T11:13:30.902Z,69.46
2023-03-30T11:16:08.132Z,69.61
2023-03-30T11:18:44.977Z,69.51
2023-03-30T11:21:21.527Z,69.61
2023-03-30T11:23:56.851Z,69.61
2023-03-30T11:26:35.255Z,69.76
2023-03-30T11:29:20.268Z,69.37
2023-03-30T11:32:00.264Z,69.44
2023-03-30T11:34:37.939Z,69.65
2023-03-30T11:37:15.044Z,69.74
2023-03-30T11:39:51.993Z,69.86
2023-03-30T11:42:28.368Z,69.50
2023-03-30T11:45:05.016Z,69.56
2023-03-30T11:47:45.491Z,69.38
2023-03-30T11:50:32.167Z,69.43
2023-03-30T11:53:17.109Z,69.16
2023-03-30T11:56:02.137Z,69.29
2023-03-30T11:58:38.748Z,68.75
2023-03-30T12:04:34.857Z,68.58
2023-03-30T12:07:12.717Z,68.90
2023-03-30T12:09:49.018Z,68.78
2023-03-30T12:12:26.099Z,68.74
2023-03-30T12:15:08.765Z,67.65
2023-03-30T12:17:51.503Z,67.65
2023-03-30T12:20:38.532Z,67.81
2023-03-30T12:23:26.483Z,67.96
2023-03-30T12:26:11.055Z,68.32
2023-03-30T12:31:24.478Z,68.64
2023-03-30T12:34:05.910Z,68.57
2023-03-30T12:36:41.187Z,68.27
2023-03-30T12:39:18.763Z,68.28
2023-03-30T12:41:57.000Z,68.22
2023-03-30T12:44:45.438Z,68.12
2023-03-30T12:47:47.270Z,67.87
2023-03-30T12:50:31.938Z,67.81
2023-03-30T12:53:13.306Z,67.59
2023-03-30T12:55:51.744Z,67.49
2023-03-30T12:58:43.081Z,67.24
2023-03-30T13:01:24.013Z,67.20
2023-03-30T13:03:59.634Z,66.88
2023-03-30T13:06:36.075Z,66.96
2023-03-30T13:09:32.224Z,66.90
2023-03-30T13:12:31.969Z,66.85
2023-03-30T13:15:26.066Z,66.72
2023-03-30T13:18:04.154Z,66.43
2023-03-30T13:20:39.741Z,66.53
2023-03-30T13:23:31.580Z,66.86
2023-03-30T13:26:08.903Z,66.61
2023-03-30T13:28:58.712Z,66.18
2023-03-30T13:31:47.808Z,66.15
2023-03-30T13:34:27.473Z,66.49
2023-03-30T13:37:04.922Z,66.59
2023-03-30T13:39:42.551Z,66.48
2023-03-30T13:42:23.762Z,66.48
2023-03-30T13:45:02.160Z,66.44
2023-03-30T13:47:46.257Z,66.19
2023-03-30T13:50:26.155Z,66.18
2023-03-30T13:53:01.711Z,66.12
2023-03-30T13:55:37.043Z,65.63
2023-03-30T13:58:13.422Z,66.16
2023-03-30T14:00:50.485Z,66.87
2023-03-30T14:03:36.296Z,66.97
2023-03-30T14:06:17.688Z,67.25
2023-03-30T14:08:53.591Z,67.52
2023-03-30T14:11:30.052Z,67.52
2023-03-30T14:14:05.506Z,67.41
2023-03-30T14:16:41.936Z,67.58
2023-03-30T14:19:19.659Z,67.87
2023-03-30T14:21:57.192Z,67.88
2023-03-30T14:24:33.104Z,67.74
2023-03-30T14:27:09.118Z,67.47
2023-03-30T14:29:48.599Z,67.50
2023-03-30T14:32:25.518Z,67.29
2023-03-30T14:35:00.720Z,67.52
2023-03-30T14:37:37.653Z,67.65
2023-03-30T14:40:17.549Z,67.53
2023-03-30T14:42:52.457Z,67.95
2023-03-30T14:45:26.763Z,67.99
2023-03-30T14:48:02.826Z,67.81
2023-03-30T14:50:37.866Z,67.95
2023-03-30T14:53:12.703Z,67.96
2023-03-30T14:55:47.561Z,68.25
2023-03-30T14:58:21.887Z,68.47
2023-03-30T15:00:59.017Z,68.30
2023-03-30T15:03:36.634Z,68.27
2023-03-30T15:06:14.434Z,68.11
2023-03-30T15:09:16.656Z,68.01
2023-03-30T15:11:58.108Z,68.01
2023-03-30T15:14:41.838Z,68.19
2023-03-30T15:17:20.089Z,68.49
2023-03-30T15:19:56.963Z,68.67
2023-03-30T15:22:57.033Z,68.48
2023-03-30T15:25:35.659Z,68.57
2023-03-30T15:28:12.421Z,68.50
2023-03-30T15:30:47.724Z,68.24
2023-03-30T15:33:28.114Z,68.36
2023-03-30T15:36:06.269Z,68.42
2023-03-30T15:38:46.928Z,68.33
2023-03-30T15:41:23.193Z,68.56
2023-03-30T15:44:02.717Z,68.50
2023-03-30T15:46:37.313Z,68.38
2023-03-30T15:49:13.638Z,68.24
2023-03-30T15:51:49.572Z,68.46
2023-03-30T15:54:26.298Z,68.56
2023-03-30T15:57:04.578Z,68.68
2023-03-30T15:59:40.945Z,68.73
2023-03-30T16:02:19.011Z,68.62
2023-03-30T16:04:54.543Z,68.33
2023-03-30T16:07:32.448Z,68.42
2023-03-30T16:10:07.400Z,68.44
2023-03-30T16:12:43.798Z,68.55
2023-03-30T16:15:47.701Z,68.67
2023-03-30T16:18:21.777Z,68.79
2023-03-30T16:20:55.792Z,69.00
2023-03-30T16:23:29.232Z,69.10
2023-03-30T16:26:03.335Z,69.19
2023-03-30T16:28:42.139Z,69.31
2023-03-30T16:31:18.835Z,69.21
2023-03-30T16:33:51.194Z,69.12
2023-03-30T16:36:25.765Z,69.00
2023-03-30T16:38:59.153Z,68.99
2023-03-30T16:41:32.967Z,68.95
2023-03-30T16:44:06.201Z,68.89
2023-03-30T16:46:42.442Z,68.93
2023-03-30T16:49:17.211Z,68.94
2023-03-30T16:51:51.665Z,69.10
2023-03-30T16:54:31.064Z,69.13
2023-03-30T16:57:01.656Z,69.01
2023-03-30T16:59:35.979Z,68.90
2023-03-30T17:02:15.876Z,68.85
2023-03-30T17:04:47.419Z,68.80
2023-03-30T17:07:21.210Z,69.00
2023-03-30T17:09:54.789Z,69.18
2023-03-30T17:12:28.380Z,69.27
2023-03-30T17:15:02.087Z,69.35
2023-03-30T17:17:35.331Z,69.50
2023-03-30T17:20:25.003Z,69.34
2023-03-30T17:22:58.448Z,69.21
2023-03-30T17:25:32.440Z,69.31
2023-03-30T17:28:07.958Z,69.39
2023-03-30T17:30:42.672Z,69.35
2023-03-30T17:33:17.064Z,69.40
2023-03-30T17:35:52.722Z,69.53
2023-03-30T17:38:27.310Z,69.74
2023-03-30T17:41:01.424Z,69.81
2023-03-30T17:43:35.409Z,69.87
2023-03-30T17:46:09.402Z,70.00
2023-03-30T17:48:42.818Z,70.04
2023-03-30T17:51:16.337Z,70.05
2023-03-30T17:53:50.396Z,69.91
2023-03-30T17:56:25.976Z,69.90
2023-03-30T17:59:04.186Z,69.77
2023-03-30T18:01:39.016Z,69.96
2023-03-30T18:04:12.984Z,70.02
2023-03-30T18:06:49.145Z,69.99
2023-03-30T18:09:22.990Z,70.00
2023-03-30T18:11:56.174Z,70.11
2023-03-30T18:14:29.560Z,70.08
2023-03-30T18:17:06.792Z,70.09
2023-03-30T18:19:38.131Z,70.15
2023-03-30T18:22:11.600Z,70.10
2023-03-30T18:24:45.222Z,70.20
2023-03-30T18:27:18.933Z,70.13
2023-03-30T18:29:52.867Z,70.05
2023-03-30T18:32:37.024Z,70.14
2023-03-30T18:35:02.127Z,70.22
2023-03-30T18:37:35.872Z,70.21
2023-03-30T18:40:20.253Z,70.28
2023-03-30T18:42:54.901Z,70.28
2023-03-30T18:45:30.492Z,70.06
2023-03-30T18:48:04.450Z,69.96
2023-03-30T18:50:39.815Z,69.80
2023-03-30T18:53:14.898Z,69.78
2023-03-30T18:55:50.561Z,69.64
2023-03-30T18:58:26.409Z,69.67
2023-03-30T19:01:01.013Z,69.75
2023-03-30T19:03:34.887Z,69.70
2023-03-30T19:06:11.876Z,69.55
2023-03-30T19:08:45.387Z,69.38
2023-03-30T19:11:22.350Z,69.26
2023-03-30T19:13:56.162Z,69.18
2023-03-30T19:16:29.874Z,69.05
2023-03-30T19:19:03.372Z,69.15
2023-03-30T19:21:36.846Z,69.25
2023-03-30T19:24:12.261Z,69.27
2023-03-30T19:26:45.730Z,69.06
2023-03-30T19:29:19.391Z,69.12
2023-03-30T19:31:54.774Z,69.22
2023-03-30T19:34:28.622Z,69.22
2023-03-30T19:37:02.221Z,68.98
2023-03-30T19:39:35.753Z,68.98
2023-03-30T19:42:09.425Z,68.95
2023-03-30T19:44:42.965Z,69.04
2023-03-30T19:47:16.581Z,69.08
2023-03-30T19:49:50.023Z,68.95
2023-03-30T19:52:23.545Z,68.83
2023-03-30T19:54:57.006Z,69.06
2023-03-30T19:57:30.505Z,69.13
2023-03-30T20:00:16.534Z,69.25
2023-03-30T20:02:56.670Z,69.17
2023-03-30T20:05:30.578Z,69.10
2023-03-30T20:08:13.674Z,69.06
2023-03-30T20:10:39.786Z,69.07
2023-03-30T20:13:13.813Z,68.93
2023-03-30T20:15:48.216Z,68.76
2023-03-30T20:18:22.856Z,68.80
2023-03-30T20:20:56.841Z,68.75
2023-03-30T20:23:30.430Z,68.72
2023-03-30T20:26:05.458Z,68.67
2023-03-30T20:28:39.294Z,68.60
2023-03-30T20:31:13.800Z,68.57
2023-03-30T20:33:47.446Z,68.62
2023-03-30T20:36:21.911Z,68.51
2023-03-30T20:38:57.267Z,68.52
2023-03-30T20:41:32.566Z,68.48
2023-03-30T20:44:08.528Z,68.50
2023-03-30T20:46:43.560Z,68.53
2023-03-30T20:49:17.322Z,68.50
2023-03-30T20:51:51.664Z,68.32
2023-03-30T20:54:25.109Z,68.49
2023-03-30T20:56:58.686Z,68.51
2023-03-30T21:02:05.965Z,68.29
2023-03-30T21:04:39.520Z,68.12
2023-03-30T21:07:13.426Z,68.18
2023-03-30T21:09:47.430Z,68.25
2023-03-30T21:12:21.112Z,68.15
2023-03-30T21:14:54.668Z,68.20
2023-03-30T21:17:28.100Z,68.16
2023-03-30T21:20:01.733Z,68.20
2023-03-30T21:22:35.832Z,68.28
2023-03-30T21:25:12.786Z,68.28
2023-03-30T21:27:46.309Z,68.23
2023-03-30T21:30:20.063Z,68.24
2023-03-30T21:32:53.641Z,68.16
2023-03-30T21:35:27.576Z,68.16
2023-03-30T21:38:03.890Z,68.21
2023-03-30T21:40:36.649Z,68.17
2023-03-30T21:43:10.344Z,68.29
2023-03-30T21:45:43.696Z,68.42
2023-03-30T21:48:17.131Z,68.38
2023-03-30T21:50:51.235Z,68.24
2023-03-30T21:53:24.948Z,68.40
2023-03-30T21:55:59.180Z,68.43
2023-03-30T21:58:32.567Z,68.50
2023-03-30T22:01:17.766Z,68.53
2023-03-30T22:03:43.331Z,68.48
2023-03-30T22:06:17.690Z,68.41
2023-03-30T22:08:51.892Z,68.50
2023-03-30T22:11:26.717Z,68.51
2023-03-30T22:14:00.153Z,68.46
2023-03-30T22:16:35.187Z,68.44
2023-03-30T22:19:08.606Z,68.33
2023-03-30T22:21:42.027Z,68.44
2023-03-30T22:24:17.132Z,68.45
2023-03-30T22:26:52.677Z,68.43
2023-03-30T22:29:26.339Z,68.35
2023-03-30T22:31:59.991Z,68.26
2023-03-30T22:34:33.865Z,68.24
2023-03-30T22:37:07.686Z,68.15
2023-03-30T22:39:41.437Z,68.23
2023-03-30T22:42:14.806Z,68.15
2023-03-30T22:44:48.202Z,68.11
2023-03-30T22:47:21.565Z,68.13
2023-03-30T22:49:55.021Z,68.10
2023-03-30T22:52:28.429Z,68.16
2023-03-30T22:55:01.616Z,68.11
2023-03-30T22:57:35.540Z,68.03
2023-03-30T23:00:11.954Z,68.00
2023-03-30T23:02:45.979Z,68.04
2023-03-30T23:05:21.448Z,68.04
2023-03-30T23:07:55.039Z,68.02
2023-03-30T23:10:30.722Z,68.03
2023-03-30T23:13:04.404Z,67.95
2023-03-30T23:15:38.042Z,67.89
2023-03-30T23:18:12.303Z,67.79
2023-03-30T23:20:46.889Z,67.72
2023-03-30T23:23:21.085Z,67.65
2023-03-30T23:25:55.168Z,67.67
2023-03-30T23:28:28.307Z,67.65
2023-03-30T23:31:02.918Z,67.62
2023-03-30T23:33:36.274Z,67.53
2023-03-30T23:36:13.923Z,67.45
2023-03-30T23:38:48.105Z,67.34
2023-03-30T23:41:22.724Z,67.40
2023-03-30T23:43:56.446Z,67.39
2023-03-30T23:46:30.217Z,67.45
2023-03-30T23:49:04.240Z,67.42
2023-03-30T23:51:37.889Z,67.43
2023-03-30T23:54:12.000Z,67.39
2023-03-30T23:56:47.037Z,67.40
2023-03-30T23:59:20.692Z,67.41
